createdAt,value
2018-11-02T00:02:02.384Z,7.70
2018-11-02T00:07:05.449Z,7.70
2018-11-02T00:12:08.561Z,7.60
2018-11-02T00:17:11.735Z,7.60
2018-11-02T00:22:14.796Z,7.60
2018-11-02T00:27:17.805Z,7.60
2018-11-02T00:32:20.874Z,7.60
2018-11-02T00:37:23.906Z,7.50
2018-11-02T00:42:27.092Z,7.50
2018-11-02T00:47:30.117Z,7.40
2018-11-02T00:52:33.225Z,7.30
2018-11-02T00:57:36.271Z,7.20
2018-11-02T01:02:39.338Z,7.20
2018-11-02T01:07:42.479Z,7.10
2018-11-02T01:12:45.523Z,7.10
2018-11-02T01:17:48.539Z,7.00
2018-11-02T01:22:51.576Z,6.90
2018-11-02T01:27:54.635Z,7.00
2018-11-02T01:32:57.637Z,7.10
2018-11-02T01:38:00.704Z,7.20
2018-11-02T01:43:03.767Z,7.30
2018-11-02T01:48:06.776Z,7.20
2018-11-02T01:53:09.874Z,7.10
2018-11-02T01:58:12.865Z,7.10
2018-11-02T02:03:15.888Z,7.10
2018-11-02T02:08:19.025Z,7.10
2018-11-02T02:13:22.058Z,7.00
2018-11-02T02:18:25.647Z,7.00
2018-11-02T02:23:28.863Z,6.90
2018-11-02T02:28:31.968Z,6.90
2018-11-02T02:33:35.000Z,6.80
2018-11-02T02:38:38.180Z,6.80
2018-11-02T02:43:41.226Z,6.70
2018-11-02T02:48:44.250Z,6.60
2018-11-02T02:53:47.295Z,6.60
2018-11-02T02:58:50.639Z,6.50
2018-11-02T03:03:53.772Z,6.50
2018-11-02T03:08:56.784Z,6.40
2018-11-02T03:13:59.825Z,6.40
2018-11-02T03:19:02.929Z,6.40
2018-11-02T03:24:06.118Z,6.40
2018-11-02T03:29:09.722Z,6.30
2018-11-02T03:34:12.833Z,6.40
2018-11-02T03:39:15.834Z,6.40
2018-11-02T03:44:18.872Z,6.40
2018-11-02T03:49:21.913Z,6.40
2018-11-02T03:54:24.964Z,6.40
2018-11-02T03:59:28.013Z,6.40
2018-11-02T04:04:31.039Z,6.30
2018-11-02T04:09:34.173Z,6.30
2018-11-02T04:14:37.123Z,6.30
2018-11-02T04:19:40.257Z,6.20
2018-11-02T04:24:43.480Z,6.30
2018-11-02T04:29:46.557Z,6.30
2018-11-02T04:34:49.590Z,6.40
2018-11-02T04:39:52.906Z,6.40
2018-11-02T04:44:55.925Z,6.40
2018-11-02T04:49:58.935Z,6.30
2018-11-02T04:55:01.978Z,6.30
2018-11-02T05:00:06.778Z,6.40
2018-11-02T05:05:11.193Z,6.30
2018-11-02T05:10:14.450Z,6.20
2018-11-02T05:15:17.472Z,6.10
2018-11-02T05:20:20.550Z,6.10
2018-11-02T05:25:23.575Z,6.10
2018-11-02T05:30:29.642Z,6.10
2018-11-02T05:35:33.688Z,6.00
2018-11-02T05:40:36.694Z,5.90
2018-11-02T05:45:41.131Z,5.80
2018-11-02T05:50:44.165Z,5.70
2018-11-02T05:55:47.715Z,5.60
2018-11-02T06:00:50.855Z,5.60
2018-11-02T06:05:53.896Z,5.50
2018-11-02T06:10:56.973Z,5.40
2018-11-02T06:15:59.976Z,5.40
2018-11-02T06:21:03.018Z,5.40
2018-11-02T06:26:10.815Z,5.40
2018-11-02T06:31:13.984Z,5.30
2018-11-02T06:36:17.060Z,5.30
2018-11-02T06:41:20.176Z,5.30
2018-11-02T06:46:23.189Z,5.40
2018-11-02T06:51:26.275Z,5.40
2018-11-02T06:56:29.334Z,5.40
2018-11-02T07:01:32.437Z,5.50
2018-11-02T07:06:35.532Z,5.80
2018-11-02T07:11:38.766Z,6.00
2018-11-02T07:16:41.776Z,6.30
2018-11-02T07:21:44.900Z,6.50
2018-11-02T07:26:47.933Z,6.80
2018-11-02T07:31:51.005Z,7.10
2018-11-02T07:36:54.049Z,7.30
2018-11-02T07:41:57.088Z,7.50
2018-11-02T07:47:00.150Z,7.60
2018-11-02T07:52:03.176Z,7.70
2018-11-02T07:57:06.700Z,7.80
2018-11-02T08:02:09.787Z,7.90
2018-11-02T08:07:12.851Z,8.10
2018-11-02T08:12:15.852Z,8.40
2018-11-02T08:17:18.884Z,8.60
2018-11-02T08:22:21.924Z,9.50
2018-11-02T08:27:25.032Z,10.30
2018-11-02T08:32:28.125Z,10.20
2018-11-02T08:37:31.197Z,11.30
2018-11-02T08:42:34.212Z,11.80
2018-11-02T08:47:37.247Z,11.20
2018-11-02T08:52:40.285Z,10.70
2018-11-02T08:57:43.485Z,10.70
2018-11-02T09:02:46.439Z,10.90
2018-11-02T09:07:49.496Z,11.10
2018-11-02T09:12:52.700Z,11.30
2018-11-02T09:17:55.876Z,11.50
2018-11-02T09:22:58.951Z,11.70
2018-11-02T09:28:02.111Z,12.00
2018-11-02T09:33:05.434Z,12.20
2018-11-02T09:38:08.504Z,12.20
2018-11-02T09:43:11.518Z,12.20
2018-11-02T09:48:14.627Z,12.30
2018-11-02T09:53:17.703Z,12.50
2018-11-02T09:58:20.739Z,12.70
2018-11-02T10:03:23.851Z,12.90
2018-11-02T10:08:27.084Z,13.20
2018-11-02T10:13:30.082Z,13.30
2018-11-02T10:18:33.124Z,13.50
2018-11-02T10:23:36.152Z,13.50
2018-11-02T10:28:39.213Z,13.60
2018-11-02T10:33:42.264Z,13.70
2018-11-02T10:38:45.295Z,13.80
2018-11-02T10:43:48.515Z,13.60
2018-11-02T10:48:51.555Z,13.60
2018-11-02T10:53:54.610Z,13.60
2018-11-02T10:58:57.656Z,13.70
2018-11-02T11:04:00.732Z,13.60
2018-11-02T11:09:07.137Z,13.60
2018-11-02T11:14:10.710Z,13.50
2018-11-02T11:19:13.748Z,13.60
2018-11-02T11:24:16.786Z,13.50
2018-11-02T11:29:19.865Z,13.50
2018-11-02T11:34:22.865Z,13.40
2018-11-02T11:39:26.248Z,13.40
2018-11-02T11:44:29.257Z,13.40
2018-11-02T11:49:32.340Z,13.50
2018-11-02T11:54:35.372Z,13.50
2018-11-02T11:59:38.378Z,13.40
2018-11-02T12:04:41.556Z,13.30
2018-11-02T12:09:44.551Z,13.30
2018-11-02T12:14:47.656Z,13.40
2018-11-02T12:19:50.706Z,13.50
2018-11-02T12:24:53.784Z,13.40
2018-11-02T12:29:56.892Z,13.40
2018-11-02T12:35:00.007Z,13.40
2018-11-02T12:40:03.067Z,13.60
2018-11-02T12:45:07.138Z,13.50
2018-11-02T12:50:14.132Z,13.60
2018-11-02T12:55:17.574Z,13.60
2018-11-02T13:00:25.913Z,13.70
2018-11-02T13:05:29.231Z,13.70
2018-11-02T13:10:32.253Z,13.90
2018-11-02T13:15:35.297Z,13.90
2018-11-02T13:20:38.427Z,13.80
2018-11-02T13:25:41.537Z,13.80
2018-11-02T13:30:44.690Z,13.90
2018-11-02T13:35:47.912Z,14.20
2018-11-02T13:40:50.960Z,14.00
2018-11-02T13:45:54.123Z,14.10
2018-11-02T13:50:57.216Z,14.20
2018-11-02T13:56:00.271Z,14.20
2018-11-02T14:01:03.369Z,14.20
2018-11-02T14:06:06.421Z,14.00
2018-11-02T14:11:10.367Z,13.90
2018-11-02T14:16:13.454Z,13.80
2018-11-02T14:21:16.542Z,13.70
2018-11-02T14:26:19.572Z,13.70
2018-11-02T14:31:22.893Z,13.60
2018-11-02T14:36:25.979Z,13.50
2018-11-02T14:41:29.215Z,13.30
2018-11-02T14:46:32.225Z,13.30
2018-11-02T14:51:35.289Z,13.10
2018-11-02T14:56:39.453Z,13.00
2018-11-02T15:01:42.488Z,12.80
2018-11-02T15:06:45.543Z,12.60
2018-11-02T15:11:48.587Z,12.40
2018-11-02T15:16:51.657Z,12.30
2018-11-02T15:21:54.688Z,12.10
2018-11-02T15:26:57.729Z,11.90
2018-11-02T15:32:00.764Z,11.70
2018-11-02T15:37:03.833Z,11.60
2018-11-02T15:42:06.894Z,11.40
2018-11-02T15:47:09.985Z,11.20
2018-11-02T15:52:13.028Z,11.00
2018-11-02T15:57:16.039Z,10.90
2018-11-02T16:02:19.152Z,10.70
2018-11-02T16:07:22.285Z,10.60
2018-11-02T16:12:25.432Z,10.40
2018-11-02T16:17:28.477Z,10.20
2018-11-02T16:22:31.531Z,10.10
2018-11-02T16:27:34.560Z,9.90
2018-11-02T16:32:37.631Z,9.70
2018-11-02T16:37:40.664Z,9.50
2018-11-02T16:42:44.300Z,9.40
2018-11-02T16:47:47.517Z,9.30
2018-11-02T16:52:50.512Z,9.20
2018-11-02T16:57:54.032Z,9.10
2018-11-02T17:02:56.916Z,9.00
2018-11-02T17:08:01.717Z,8.80
2018-11-02T17:13:05.151Z,8.70
2018-11-02T17:18:08.244Z,8.70
2018-11-02T17:23:11.318Z,8.60
2018-11-02T17:28:14.410Z,8.50
2018-11-02T17:33:17.451Z,8.50
2018-11-02T17:38:20.652Z,8.40
2018-11-02T17:43:23.749Z,8.40
2018-11-02T17:48:26.901Z,8.30
2018-11-02T17:53:30.162Z,8.20
2018-11-02T17:58:33.158Z,8.20
2018-11-02T18:03:36.372Z,8.10
2018-11-02T18:08:39.412Z,8.10
2018-11-02T18:13:42.484Z,8.10
2018-11-02T18:18:45.564Z,8.00
2018-11-02T18:23:48.589Z,8.00
2018-11-02T18:28:51.648Z,8.00
2018-11-02T18:33:54.807Z,8.00
2018-11-02T18:38:57.872Z,8.00
2018-11-02T18:44:01.588Z,8.00
2018-11-02T18:49:04.826Z,8.00
2018-11-02T18:54:08.564Z,8.00
2018-11-02T18:59:11.622Z,7.90
2018-11-02T19:04:14.939Z,7.80
2018-11-02T19:09:18.039Z,7.80
2018-11-02T19:14:21.133Z,7.70
2018-11-02T19:19:25.186Z,7.60
2018-11-02T19:24:28.296Z,7.60
2018-11-02T19:29:31.335Z,7.50
2018-11-02T19:34:34.791Z,7.50
2018-11-02T19:39:37.735Z,7.50
2018-11-02T19:44:40.860Z,7.50
2018-11-02T19:49:44.092Z,7.50
2018-11-02T19:54:47.179Z,7.50
2018-11-02T19:59:50.231Z,7.60
2018-11-02T20:04:53.360Z,7.60
2018-11-02T20:09:56.462Z,7.70
2018-11-02T20:14:59.599Z,7.70
2018-11-02T20:20:02.829Z,7.70
2018-11-02T20:25:06.848Z,7.80
2018-11-02T20:30:12.482Z,7.80
2018-11-02T20:35:15.856Z,7.80
2018-11-02T20:40:19.631Z,7.90
2018-11-02T20:45:22.908Z,7.90
2018-11-02T20:50:26.016Z,7.90
2018-11-02T20:55:29.141Z,8.00
2018-11-02T21:00:32.206Z,8.00
2018-11-02T21:05:35.300Z,8.00
2018-11-02T21:10:38.305Z,8.00
2018-11-02T21:15:41.381Z,7.90
2018-11-02T21:20:44.556Z,7.90
2018-11-02T21:25:47.630Z,7.90
2018-11-02T21:30:50.709Z,7.80
2018-11-02T21:35:53.748Z,7.80
2018-11-02T21:40:56.773Z,7.80
2018-11-02T21:45:59.994Z,7.80
2018-11-02T21:51:03.043Z,7.70
2018-11-02T21:56:06.119Z,7.70
2018-11-02T22:01:09.286Z,7.60
2018-11-02T22:06:12.366Z,7.50
2018-11-02T22:11:15.468Z,7.40
2018-11-02T22:16:18.495Z,7.40
2018-11-02T22:21:21.631Z,7.30
2018-11-02T22:26:24.725Z,7.30
2018-11-02T22:31:27.798Z,7.40
2018-11-02T22:36:30.884Z,7.40
2018-11-02T22:41:33.928Z,7.40
2018-11-02T22:46:37.252Z,7.50
2018-11-02T22:51:40.299Z,7.40
2018-11-02T22:56:43.343Z,7.40
2018-11-02T23:01:46.433Z,7.30
2018-11-02T23:06:49.483Z,7.30
2018-11-02T23:11:53.466Z,7.30
2018-11-02T23:16:56.620Z,7.40
2018-11-02T23:21:59.680Z,7.40
2018-11-02T23:27:02.803Z,7.40
2018-11-02T23:32:05.866Z,7.40
2018-11-02T23:37:08.888Z,7.40
2018-11-02T23:42:11.994Z,7.40
2018-11-02T23:47:15.120Z,7.40
2018-11-02T23:52:18.171Z,7.40
2018-11-02T23:57:21.216Z,7.40
